createdAt,value
2016-04-17T00:00:25.646Z,1009.2
2016-04-17T00:01:25.632Z,1009.15
2016-04-17T00:02:25.620Z,1009.19
2016-04-17T00:03:25.607Z,1009.18
2016-04-17T00:04:25.594Z,1009.2
2016-04-17T00:05:25.582Z,1009.2
2016-04-17T00:06:25.552Z,1009.21
2016-04-17T00:07:25.540Z,1009.18
2016-04-17T00:08:25.526Z,1009.17
2016-04-17T00:09:25.624Z,1009.15
2016-04-17T00:10:25.501Z,1009.19
2016-04-17T00:11:25.488Z,1009.1
2016-04-17T00:12:25.476Z,1009.11
2016-04-17T00:13:25.462Z,1009.1
2016-04-17T00:14:25.448Z,1009.1
2016-04-17T00:15:25.436Z,1009.1
2016-04-17T00:16:25.423Z,1009.11
2016-04-17T00:17:25.395Z,1009.1
2016-04-17T00:18:25.381Z,1009.12
2016-04-17T00:19:25.369Z,1009.11
2016-04-17T00:20:25.355Z,1009.09
2016-04-17T00:21:25.343Z,1009.11
2016-04-17T00:22:25.330Z,1009.12
2016-04-17T00:23:25.317Z,1009.13
2016-04-17T00:24:25.336Z,1009.14
2016-04-17T00:25:25.291Z,1009.11
2016-04-17T00:26:25.263Z,1009.14
2016-04-17T00:27:25.249Z,1009.18
2016-04-17T00:28:25.236Z,1009.14
2016-04-17T00:29:25.223Z,1009.17
2016-04-17T00:30:25.210Z,1009.15
2016-04-17T00:31:25.213Z,1009.13
2016-04-17T00:32:25.185Z,1009.2
2016-04-17T00:33:25.171Z,1009.2
2016-04-17T00:34:25.159Z,1009.22
2016-04-17T00:35:25.130Z,1009.25
2016-04-17T00:36:25.118Z,1009.23
2016-04-17T00:37:25.105Z,1009.19
2016-04-17T00:38:25.092Z,1009.26
2016-04-17T00:39:25.079Z,1009.21
2016-04-17T00:40:25.065Z,1009.2
2016-04-17T00:41:25.053Z,1009.22
2016-04-17T00:42:25.040Z,1009.21
2016-04-17T00:43:25.012Z,1009.15
2016-04-17T00:44:25.014Z,1009.16
2016-04-17T00:45:24.986Z,1009.16
2016-04-17T00:46:24.972Z,1009.14
2016-04-17T00:47:24.959Z,1009.14
2016-04-17T00:48:24.947Z,1009.11
2016-04-17T00:49:24.934Z,1009.14
2016-04-17T00:50:24.921Z,1009.14
2016-04-17T00:51:24.908Z,1009.14
2016-04-17T00:52:24.895Z,1009.14
2016-04-17T00:53:24.883Z,1009.12
2016-04-17T00:54:24.870Z,1009.13
2016-04-17T00:55:24.856Z,1009.09
2016-04-17T00:56:24.828Z,1009.09
2016-04-17T00:57:24.814Z,1009.07
2016-04-17T00:58:24.802Z,1009.06
2016-04-17T00:59:24.788Z,1009.05
2016-04-17T01:00:24.777Z,1009.01
2016-04-17T01:01:24.763Z,1009.04
2016-04-17T01:02:24.750Z,1009.04
2016-04-17T01:03:24.721Z,1009.01
2016-04-17T01:04:24.708Z,1009.03
2016-04-17T01:05:24.711Z,1008.99
2016-04-17T01:06:24.683Z,1008.98
2016-04-17T01:07:24.670Z,1008.94
2016-04-17T01:08:24.657Z,1009
2016-04-17T01:09:24.643Z,1009
2016-04-17T01:10:24.631Z,1008.99
2016-04-17T01:11:24.618Z,1008.99
2016-04-17T01:12:24.590Z,1009
2016-04-17T01:13:24.577Z,1009.02
2016-04-17T01:14:24.564Z,1009.04
2016-04-17T01:15:24.550Z,1009.02
2016-04-17T01:16:24.537Z,1009.05
2016-04-17T01:17:24.525Z,1009.07
2016-04-17T01:18:24.512Z,1009.06
2016-04-17T01:19:24.499Z,1009.03
2016-04-17T01:20:24.486Z,1009.05
2016-04-17T01:21:24.473Z,1009.01
2016-04-17T01:22:24.444Z,1009.03
2016-04-17T01:23:24.431Z,1008.99
2016-04-17T01:24:24.419Z,1008.96
2016-04-17T01:25:24.406Z,1008.97
2016-04-17T01:26:24.408Z,1008.96
2016-04-17T01:27:24.380Z,1008.95
2016-04-17T01:28:24.366Z,1008.98
2016-04-17T01:29:24.354Z,1008.95
2016-04-17T01:30:24.341Z,1008.93
2016-04-17T01:31:24.313Z,1008.92
2016-04-17T01:32:24.299Z,1008.9
2016-04-17T01:33:24.286Z,1008.91
2016-04-17T01:34:24.288Z,1008.93
2016-04-17T01:35:24.261Z,1008.88
2016-04-17T01:36:24.248Z,1008.88
2016-04-17T01:37:24.235Z,1008.89
2016-04-17T01:38:24.221Z,1008.89
2016-04-17T01:39:24.193Z,1008.86
2016-04-17T01:40:24.179Z,1008.89
2016-04-17T01:41:24.168Z,1008.86
2016-04-17T01:42:24.154Z,1008.89
2016-04-17T01:43:24.142Z,1008.88
2016-04-17T01:44:24.128Z,1008.9
2016-04-17T01:45:24.115Z,1008.83
2016-04-17T01:46:24.103Z,1008.87
2016-04-17T01:47:24.090Z,1008.83
2016-04-17T01:48:24.061Z,1008.83
2016-04-17T01:49:24.048Z,1008.83
2016-04-17T01:50:24.035Z,1008.83
2016-04-17T01:51:24.022Z,1008.81
2016-04-17T01:52:24.009Z,1008.8
2016-04-17T01:53:23.997Z,1008.77
2016-04-17T01:54:23.984Z,1008.77
2016-04-17T01:55:23.970Z,1008.75
2016-04-17T01:56:23.958Z,1008.75
2016-04-17T01:57:23.929Z,1008.75
2016-04-17T01:58:23.916Z,1008.73
2016-04-17T01:59:23.903Z,1008.73
2016-04-17T02:00:23.891Z,1008.72
2016-04-17T02:01:23.877Z,1008.69
2016-04-17T02:02:23.864Z,1008.7
2016-04-17T02:03:23.851Z,1008.71
2016-04-17T02:04:23.824Z,1008.63
2016-04-17T02:05:23.810Z,1008.67
2016-04-17T02:06:23.797Z,1008.67
2016-04-17T02:07:23.784Z,1008.68
2016-04-17T02:08:23.771Z,1008.68
2016-04-17T02:09:23.758Z,1008.71
2016-04-17T02:10:23.746Z,1008.69
2016-04-17T02:11:23.732Z,1008.69
2016-04-17T02:12:23.720Z,1008.71
2016-04-17T02:13:23.706Z,1008.69
2016-04-17T02:14:23.678Z,1008.72
2016-04-17T02:15:23.664Z,1008.71
2016-04-17T02:16:23.668Z,1008.72
2016-04-17T02:17:23.639Z,1008.73
2016-04-17T02:18:23.626Z,1008.75
2016-04-17T02:19:23.613Z,1008.75
2016-04-17T02:20:23.600Z,1008.74
2016-04-17T02:21:23.603Z,1008.75
2016-04-17T02:22:23.564Z,1008.78
2016-04-17T02:23:23.550Z,1008.77
2016-04-17T02:24:23.538Z,1008.79
2016-04-17T02:25:23.525Z,1008.82
2016-04-17T02:26:23.511Z,1008.78
2016-04-17T02:27:23.499Z,1008.8
2016-04-17T02:28:23.486Z,1008.79
2016-04-17T02:29:23.473Z,1008.79
2016-04-17T02:30:23.444Z,1008.75
2016-04-17T02:31:23.432Z,1008.77
2016-04-17T02:32:23.435Z,1008.76
2016-04-17T02:33:23.406Z,1008.77
2016-04-17T02:34:23.393Z,1008.75
2016-04-17T02:35:23.380Z,1008.75
2016-04-17T02:36:23.367Z,1008.75
2016-04-17T02:37:23.354Z,1008.69
2016-04-17T02:38:23.341Z,1008.66
2016-04-17T02:39:23.313Z,1008.67
2016-04-17T02:40:23.299Z,1008.71
2016-04-17T02:41:23.287Z,1008.66
2016-04-17T02:42:23.273Z,1008.69
2016-04-17T02:43:23.261Z,1008.7
2016-04-17T02:44:23.248Z,1008.7
2016-04-17T02:45:23.235Z,1008.66
2016-04-17T02:46:23.222Z,1008.68
2016-04-17T02:47:23.193Z,1008.7
2016-04-17T02:48:23.180Z,1008.68
2016-04-17T02:49:23.168Z,1008.68
2016-04-17T02:50:23.155Z,1008.7
2016-04-17T02:51:23.158Z,1008.68
2016-04-17T02:52:23.128Z,1008.69
2016-04-17T02:53:23.116Z,1008.69
2016-04-17T02:54:23.086Z,1008.7
2016-04-17T02:55:23.075Z,1008.7
2016-04-17T02:56:23.061Z,1008.7
2016-04-17T02:57:23.049Z,1008.7
2016-04-17T02:58:23.035Z,1008.66
2016-04-17T02:59:23.022Z,1008.64
2016-04-17T03:00:23.010Z,1008.65
2016-04-17T03:01:22.996Z,1008.7
2016-04-17T03:02:22.968Z,1008.68
2016-04-17T03:03:22.955Z,1008.7
2016-04-17T03:04:22.943Z,1008.75
2016-04-17T03:05:22.929Z,1008.76
2016-04-17T03:06:22.916Z,1008.76
2016-04-17T03:07:22.904Z,1008.72
2016-04-17T03:08:22.890Z,1008.72
2016-04-17T03:09:22.862Z,1008.73
2016-04-17T03:10:22.849Z,1008.73
2016-04-17T03:11:22.851Z,1008.75
2016-04-17T03:12:22.823Z,1008.75
2016-04-17T03:13:22.810Z,1008.74
2016-04-17T03:14:22.798Z,1008.73
2016-04-17T03:15:22.784Z,1008.74
2016-04-17T03:16:22.771Z,1008.72
2016-04-17T03:17:22.758Z,1008.77
2016-04-17T03:18:22.730Z,1008.77
2016-04-17T03:19:22.717Z,1008.78
2016-04-17T03:20:22.703Z,1008.8
2016-04-17T03:21:22.691Z,1008.77
2016-04-17T03:22:22.678Z,1008.78
2016-04-17T03:23:22.665Z,1008.78
2016-04-17T03:24:22.653Z,1008.8
2016-04-17T03:25:22.624Z,1008.78
2016-04-17T03:26:22.611Z,1008.81
2016-04-17T03:27:22.597Z,1008.76
2016-04-17T03:28:22.585Z,1008.75
2016-04-17T03:29:22.571Z,1008.73
2016-04-17T03:30:22.559Z,1008.74
2016-04-17T03:31:22.546Z,1008.73
2016-04-17T03:32:22.518Z,1008.72
2016-04-17T03:33:22.504Z,1008.71
2016-04-17T03:34:22.491Z,1008.74
2016-04-17T03:35:22.478Z,1008.69
2016-04-17T03:36:22.466Z,1008.72
2016-04-17T03:37:22.452Z,1008.73
2016-04-17T03:38:22.424Z,1008.71
2016-04-17T03:39:22.411Z,1008.71
2016-04-17T03:40:22.398Z,1008.73
2016-04-17T03:41:22.385Z,1008.71
2016-04-17T03:42:22.373Z,1008.73
2016-04-17T03:43:22.359Z,1008.75
2016-04-17T03:44:22.346Z,1008.77
2016-04-17T03:45:22.334Z,1008.78
2016-04-17T03:46:22.320Z,1008.76
2016-04-17T03:47:22.292Z,1008.77
2016-04-17T03:48:22.279Z,1008.78
2016-04-17T03:49:22.267Z,1008.78
2016-04-17T03:50:22.254Z,1008.78
2016-04-17T03:51:22.240Z,1008.81
2016-04-17T03:52:22.227Z,1008.85
2016-04-17T03:53:22.200Z,1008.83
2016-04-17T03:54:22.186Z,1008.8
2016-04-17T03:55:22.173Z,1008.86
2016-04-17T03:56:22.160Z,1008.85
2016-04-17T03:57:22.147Z,1008.87
2016-04-17T03:58:22.134Z,1008.83
2016-04-17T03:59:22.121Z,1008.9
2016-04-17T04:00:22.108Z,1008.92
2016-04-17T04:01:22.096Z,1008.91
2016-04-17T04:02:22.083Z,1008.88
2016-04-17T04:03:22.069Z,1008.9
2016-04-17T04:04:22.041Z,1008.87
2016-04-17T04:05:22.028Z,1008.86
2016-04-17T04:06:22.031Z,1008.84
2016-04-17T04:07:22.002Z,1008.86
2016-04-17T04:08:21.990Z,1008.9
2016-04-17T04:09:21.960Z,1008.87
2016-04-17T04:10:21.948Z,1008.86
2016-04-17T04:11:21.934Z,1008.89
2016-04-17T04:12:21.922Z,1008.92
2016-04-17T04:13:21.909Z,1008.91
2016-04-17T04:14:21.896Z,1008.91
2016-04-17T04:15:21.883Z,1008.91
2016-04-17T04:16:21.855Z,1008.92
2016-04-17T04:17:21.857Z,1008.91
2016-04-17T04:18:21.829Z,1008.93
2016-04-17T04:19:21.831Z,1008.94
2016-04-17T04:20:21.803Z,1008.97
2016-04-17T04:21:21.789Z,1008.97
2016-04-17T04:22:21.777Z,1008.94
2016-04-17T04:23:21.764Z,1008.96
2016-04-17T04:24:21.751Z,1008.92
2016-04-17T04:25:21.769Z,1008.93
2016-04-17T04:26:21.709Z,1008.94
2016-04-17T04:27:21.696Z,1008.92
2016-04-17T04:28:21.683Z,1008.95
2016-04-17T04:29:21.655Z,1008.95
2016-04-17T04:30:21.658Z,1008.99
2016-04-17T04:31:21.645Z,1008.99
2016-04-17T04:32:21.616Z,1009.03
2016-04-17T04:33:21.603Z,1009.02
2016-04-17T04:34:21.591Z,1009.04
2016-04-17T04:35:21.578Z,1009.02
2016-04-17T04:36:21.565Z,1009.02
2016-04-17T04:37:21.536Z,1009.03
2016-04-17T04:38:21.523Z,1009.03
2016-04-17T04:39:21.510Z,1009.02
2016-04-17T04:40:21.607Z,1009.01
2016-04-17T04:41:21.484Z,1009.02
2016-04-17T04:42:21.471Z,1009
2016-04-17T04:43:21.459Z,1008.98
2016-04-17T04:44:21.429Z,1008.98
2016-04-17T04:45:21.417Z,1008.99
2016-04-17T04:46:21.403Z,1009.03
2016-04-17T04:47:21.391Z,1009.02
2016-04-17T04:48:21.378Z,1009.02
2016-04-17T04:49:21.365Z,1009.05
2016-04-17T04:50:21.352Z,1009.01
2016-04-17T04:51:21.339Z,1009.01
2016-04-17T04:52:21.326Z,1008.99
2016-04-17T04:53:21.298Z,1009.01
2016-04-17T04:54:21.284Z,1009.04
2016-04-17T04:55:21.287Z,1009.03
2016-04-17T04:56:21.258Z,1008.99
2016-04-17T04:57:21.246Z,1008.95
2016-04-17T04:58:21.233Z,1008.98
2016-04-17T04:59:21.204Z,1009.02
2016-04-17T05:00:21.192Z,1009.04
2016-04-17T05:01:21.178Z,1009.02
2016-04-17T05:02:21.166Z,1009
2016-04-17T05:03:21.152Z,1009.01
2016-04-17T05:04:21.140Z,1009.04
2016-04-17T05:05:21.127Z,1009.04
2016-04-17T05:06:21.099Z,1009.03
2016-04-17T05:07:21.085Z,1009.06
2016-04-17T05:08:21.072Z,1009.04
2016-04-17T05:09:21.074Z,1009.06
2016-04-17T05:10:21.047Z,1009.07
2016-04-17T05:11:21.034Z,1009.06
2016-04-17T05:12:21.021Z,1009.13
2016-04-17T05:13:20.992Z,1009.06
2016-04-17T05:14:20.979Z,1009.08
2016-04-17T05:15:20.965Z,1009.1
2016-04-17T05:16:20.954Z,1009.14
2016-04-17T05:17:20.940Z,1009.16
2016-04-17T05:18:20.928Z,1009.13
2016-04-17T05:19:20.898Z,1009.17
2016-04-17T05:20:20.886Z,1009.14
2016-04-17T05:21:20.872Z,1009.14
2016-04-17T05:22:20.860Z,1009.19
2016-04-17T05:23:20.847Z,1009.14
2016-04-17T05:24:20.834Z,1009.15
2016-04-17T05:25:20.821Z,1009.16
2016-04-17T05:26:20.792Z,1009.19
2016-04-17T05:27:20.780Z,1009.16
2016-04-17T05:28:20.767Z,1009.18
2016-04-17T05:29:20.753Z,1009.19
2016-04-17T05:30:20.741Z,1009.19
2016-04-17T05:31:20.728Z,1009.21
2016-04-17T05:32:20.715Z,1009.19
2016-04-17T05:33:20.702Z,1009.17
2016-04-17T05:34:20.674Z,1009.18
2016-04-17T05:35:20.661Z,1009.17
2016-04-17T05:36:20.647Z,1009.22
2016-04-17T05:37:20.635Z,1009.23
2016-04-17T05:38:20.621Z,1009.21
2016-04-17T05:39:20.593Z,1009.24
2016-04-17T05:40:20.580Z,1009.26
2016-04-17T05:41:20.568Z,1009.26
2016-04-17T05:42:20.554Z,1009.23
2016-04-17T05:43:20.541Z,1009.28
2016-04-17T05:44:20.529Z,1009.29
2016-04-17T05:45:20.516Z,1009.28
2016-04-17T05:46:20.503Z,1009.29
2016-04-17T05:47:20.490Z,1009.3
2016-04-17T05:48:20.462Z,1009.29
2016-04-17T05:49:20.448Z,1009.31
2016-04-17T05:50:20.435Z,1009.34
2016-04-17T05:51:20.423Z,1009.32
2016-04-17T05:52:20.410Z,1009.34
2016-04-17T05:53:20.397Z,1009.34
2016-04-17T05:54:20.368Z,1009.38
2016-04-17T05:55:20.355Z,1009.35
2016-04-17T05:56:20.342Z,1009.37
2016-04-17T05:57:20.328Z,1009.39
2016-04-17T05:58:20.317Z,1009.39
2016-04-17T05:59:20.303Z,1009.39
2016-04-17T06:00:20.275Z,1009.39
2016-04-17T06:01:20.261Z,1009.37
2016-04-17T06:02:20.250Z,1009.37
2016-04-17T06:03:20.273Z,1009.37
2016-04-17T06:04:20.299Z,1009.36
2016-04-17T06:05:20.327Z,1009.39
2016-04-17T06:06:20.354Z,1009.4
2016-04-17T06:07:20.381Z,1009.41
2016-04-17T06:08:20.384Z,1009.41
2016-04-17T06:09:20.385Z,1009.39
2016-04-17T06:10:20.387Z,1009.45
2016-04-17T06:11:20.372Z,1009.43
2016-04-17T06:12:20.374Z,1009.43
2016-04-17T06:13:20.366Z,1009.43
2016-04-17T06:14:20.360Z,1009.43
2016-04-17T06:15:20.352Z,1009.47
2016-04-17T06:16:20.344Z,1009.46
2016-04-17T06:17:20.321Z,1009.45
2016-04-17T06:18:20.309Z,1009.48
2016-04-17T06:19:20.299Z,1009.47
2016-04-17T06:20:20.287Z,1009.47
2016-04-17T06:21:20.278Z,1009.45
2016-04-17T06:22:20.266Z,1009.45
2016-04-17T06:23:20.238Z,1009.47
2016-04-17T06:24:20.226Z,1009.44
2016-04-17T06:25:20.213Z,1009.4
2016-04-17T06:26:20.202Z,1009.42
2016-04-17T06:27:20.190Z,1009.49
2016-04-17T06:28:20.177Z,1009.47
2016-04-17T06:29:20.164Z,1009.48
2016-04-17T06:30:20.150Z,1009.51
2016-04-17T06:31:20.138Z,1009.56
2016-04-17T06:32:20.109Z,1009.58
2016-04-17T06:33:20.096Z,1009.61
2016-04-17T06:34:20.083Z,1009.62
2016-04-17T06:35:20.071Z,1009.61
2016-04-17T06:36:20.057Z,1009.64
2016-04-17T06:37:20.044Z,1009.66
2016-04-17T06:38:20.016Z,1009.67
2016-04-17T06:39:20.002Z,1009.68
2016-04-17T06:40:19.991Z,1009.67
2016-04-17T06:41:19.977Z,1009.68
2016-04-17T06:42:19.964Z,1009.7
2016-04-17T06:43:19.952Z,1009.74
2016-04-17T06:44:19.938Z,1009.74
2016-04-17T06:45:19.910Z,1009.76
2016-04-17T06:46:19.897Z,1009.79
2016-04-17T06:47:19.899Z,1009.8
2016-04-17T06:48:19.871Z,1009.81
2016-04-17T06:49:19.859Z,1009.83
2016-04-17T06:50:19.845Z,1009.84
2016-04-17T06:51:19.832Z,1009.84
2016-04-17T06:52:19.820Z,1009.84
2016-04-17T06:53:19.806Z,1009.83
2016-04-17T06:54:19.778Z,1009.76
2016-04-17T06:55:19.764Z,1009.79
2016-04-17T06:56:19.752Z,1009.83
2016-04-17T06:57:19.740Z,1009.81
2016-04-17T06:58:19.725Z,1009.84
2016-04-17T06:59:19.714Z,1009.85
2016-04-17T07:00:19.700Z,1009.83
2016-04-17T07:01:19.687Z,1009.88
2016-04-17T07:02:19.659Z,1009.88
2016-04-17T07:03:19.646Z,1009.9
2016-04-17T07:04:19.633Z,1009.91
2016-04-17T07:05:19.620Z,1009.9
2016-04-17T07:06:19.607Z,1009.94
2016-04-17T07:07:19.610Z,1009.95
2016-04-17T07:08:19.581Z,1009.95
2016-04-17T07:09:19.568Z,1010
2016-04-17T07:10:19.555Z,1009.97
2016-04-17T07:11:19.542Z,1009.96
2016-04-17T07:12:19.514Z,1010.02
2016-04-17T07:13:19.501Z,1009.96
2016-04-17T07:14:19.487Z,1010.01
2016-04-17T07:15:19.474Z,1009.99
2016-04-17T07:16:19.462Z,1010.01
2016-04-17T07:17:19.448Z,1010.02
2016-04-17T07:18:19.437Z,1010
2016-04-17T07:19:19.423Z,1009.99
2016-04-17T07:20:19.410Z,1010.01
2016-04-17T07:21:19.381Z,1010
2016-04-17T07:22:19.369Z,1010.03
2016-04-17T07:23:19.371Z,1010
2016-04-17T07:24:19.359Z,1010.01
2016-04-17T07:25:19.330Z,1010.03
2016-04-17T07:26:19.317Z,1010.08
2016-04-17T07:27:19.304Z,1010.07
2016-04-17T07:28:19.292Z,1010.08
2016-04-17T07:29:19.278Z,1010.07
2016-04-17T07:30:19.265Z,1010.1
2016-04-17T07:31:19.236Z,1010.14
2016-04-17T07:32:19.224Z,1010.12
2016-04-17T07:33:19.211Z,1010.13
2016-04-17T07:34:19.198Z,1010.16
2016-04-17T07:35:19.185Z,1010.12
2016-04-17T07:36:19.172Z,1010.14
2016-04-17T07:37:19.159Z,1010.08
2016-04-17T07:38:19.147Z,1010.11
2016-04-17T07:39:19.133Z,1010.08
2016-04-17T07:40:19.121Z,1010.1
2016-04-17T07:41:19.091Z,1010.04
2016-04-17T07:42:19.079Z,1010.05
2016-04-17T07:43:19.066Z,1010.03
2016-04-17T07:44:19.053Z,1010.09
2016-04-17T07:45:19.055Z,1010.07
2016-04-17T07:46:19.027Z,1010.07
2016-04-17T07:47:19.014Z,1010.08
2016-04-17T07:48:19.001Z,1010.13
2016-04-17T07:49:18.988Z,1010.09
2016-04-17T07:50:18.975Z,1010.13
2016-04-17T07:51:18.946Z,1010.17
2016-04-17T07:52:18.934Z,1010.15
2016-04-17T07:53:18.937Z,1010.1
2016-04-17T07:54:18.909Z,1010.13
2016-04-17T07:55:18.895Z,1010.12
2016-04-17T07:56:18.882Z,1010.15
2016-04-17T07:57:18.869Z,1010.2
2016-04-17T07:58:18.856Z,1010.15
2016-04-17T07:59:18.842Z,1010.2
2016-04-17T08:00:18.815Z,1010.22
2016-04-17T08:01:18.802Z,1010.21
2016-04-17T08:02:18.789Z,1010.21
2016-04-17T08:03:18.775Z,1010.24
2016-04-17T08:04:18.763Z,1010.2
2016-04-17T08:05:18.750Z,1010.24
2016-04-17T08:06:18.736Z,1010.21
2016-04-17T08:07:18.724Z,1010.24
2016-04-17T08:08:18.711Z,1010.2
2016-04-17T08:09:18.683Z,1010.2
2016-04-17T08:10:18.670Z,1010.19
2016-04-17T08:11:18.657Z,1010.19
2016-04-17T08:12:18.643Z,1010.22
2016-04-17T08:13:18.630Z,1010.17
2016-04-17T08:14:18.618Z,1010.2
2016-04-17T08:15:18.605Z,1010.2
2016-04-17T08:16:18.593Z,1010.22
2016-04-17T08:17:18.579Z,1010.2
2016-04-17T08:18:18.565Z,1010.27
2016-04-17T08:19:18.553Z,1010.31
2016-04-17T08:20:18.524Z,1010.27
2016-04-17T08:21:18.511Z,1010.31
2016-04-17T08:22:18.499Z,1010.31
2016-04-17T08:23:18.486Z,1010.38
2016-04-17T08:24:18.489Z,1010.39
2016-04-17T08:25:18.459Z,1010.48
2016-04-17T08:26:18.447Z,1010.5
2016-04-17T08:27:18.434Z,1010.48
2016-04-17T08:28:18.406Z,1010.49
2016-04-17T08:29:18.393Z,1010.51
2016-04-17T08:30:18.380Z,1010.47
2016-04-17T08:31:18.367Z,1010.51
2016-04-17T08:32:18.353Z,1010.52
2016-04-17T08:33:18.341Z,1010.51
2016-04-17T08:34:18.328Z,1010.52
2016-04-17T08:35:18.314Z,1010.5
2016-04-17T08:36:18.302Z,1010.53
2016-04-17T08:37:18.289Z,1010.51
2016-04-17T08:38:18.276Z,1010.53
2016-04-17T08:39:18.263Z,1010.48
2016-04-17T08:40:18.250Z,1010.53
2016-04-17T08:41:18.238Z,1010.52
2016-04-17T08:42:18.225Z,1010.54
2016-04-17T08:43:18.212Z,1010.56
2016-04-17T08:44:18.199Z,1010.63
2016-04-17T08:45:18.185Z,1010.58
2016-04-17T08:46:18.157Z,1010.53
2016-04-17T08:47:18.160Z,1010.46
2016-04-17T08:48:18.147Z,1010.49
2016-04-17T08:49:18.118Z,1010.53
2016-04-17T08:50:18.105Z,1010.52
2016-04-17T08:51:18.093Z,1010.45
2016-04-17T08:52:18.080Z,1010.48
2016-04-17T08:53:18.067Z,1010.51
2016-04-17T08:54:18.053Z,1010.55
2016-04-17T08:55:18.040Z,1010.57
2016-04-17T08:56:18.028Z,1010.54
2016-04-17T08:57:18.015Z,1010.53
2016-04-17T08:58:18.002Z,1010.56
2016-04-17T08:59:17.989Z,1010.62
2016-04-17T09:00:17.976Z,1010.62
2016-04-17T09:01:17.964Z,1010.62
2016-04-17T09:02:17.950Z,1010.6
2016-04-17T09:03:17.922Z,1010.64
2016-04-17T09:04:17.908Z,1010.65
2016-04-17T09:05:17.895Z,1010.69
2016-04-17T09:06:17.883Z,1010.71
2016-04-17T09:07:17.870Z,1010.67
2016-04-17T09:08:17.857Z,1010.65
2016-04-17T09:09:17.844Z,1010.66
2016-04-17T09:10:17.830Z,1010.74
2016-04-17T09:11:17.819Z,1010.8
2016-04-17T09:12:17.805Z,1010.76
2016-04-17T09:13:17.792Z,1010.8
2016-04-17T09:14:17.779Z,1010.78
2016-04-17T09:15:17.767Z,1010.85
2016-04-17T09:16:17.754Z,1010.76
2016-04-17T09:17:17.741Z,1010.83
2016-04-17T09:18:17.712Z,1010.77
2016-04-17T09:19:17.699Z,1010.78
2016-04-17T09:20:17.702Z,1010.71
2016-04-17T09:21:17.688Z,1010.67
2016-04-17T09:22:17.660Z,1010.8
2016-04-17T09:23:17.647Z,1010.74
2016-04-17T09:24:17.635Z,1010.75
2016-04-17T09:25:17.621Z,1010.77
2016-04-17T09:26:17.609Z,1010.73
2016-04-17T09:27:17.596Z,1010.72
2016-04-17T09:28:17.583Z,1010.8
2016-04-17T09:29:17.570Z,1010.82
2016-04-17T09:30:17.557Z,1010.75
2016-04-17T09:31:17.544Z,1010.86
2016-04-17T09:32:17.531Z,1010.79
2016-04-17T09:33:17.518Z,1010.88
2016-04-17T09:34:17.490Z,1010.91
2016-04-17T09:35:17.476Z,1010.81
2016-04-17T09:36:17.464Z,1010.85
2016-04-17T09:37:17.451Z,1010.85
2016-04-17T09:38:17.439Z,1010.83
2016-04-17T09:39:17.441Z,1010.9
2016-04-17T09:40:17.412Z,1010.88
2016-04-17T09:41:17.431Z,1010.97
2016-04-17T09:42:17.386Z,1010.94
2016-04-17T09:43:17.372Z,1010.91
2016-04-17T09:44:17.360Z,1010.93
2016-04-17T09:45:17.363Z,1010.91
2016-04-17T09:46:17.335Z,1010.94
2016-04-17T09:47:17.321Z,1010.92
2016-04-17T09:48:17.309Z,1010.96
2016-04-17T09:49:17.296Z,1010.95
2016-04-17T09:50:17.283Z,1010.87
2016-04-17T09:51:17.270Z,1011.02
2016-04-17T09:52:17.257Z,1010.93
2016-04-17T09:53:17.229Z,1010.94
2016-04-17T09:54:17.216Z,1011.1
2016-04-17T09:55:17.202Z,1010.95
2016-04-17T09:56:17.205Z,1010.95
2016-04-17T09:57:17.177Z,1011
2016-04-17T09:58:17.163Z,1011.02
2016-04-17T09:59:17.165Z,1011.05
2016-04-17T10:00:17.137Z,1011
2016-04-17T10:01:17.125Z,1011.04
2016-04-17T10:02:17.112Z,1011.06
2016-04-17T10:03:17.099Z,1011.16
2016-04-17T10:04:17.087Z,1011.13
2016-04-17T10:05:17.073Z,1011.19
2016-04-17T10:06:17.060Z,1011.17
2016-04-17T10:07:17.048Z,1011.2
2016-04-17T10:08:17.034Z,1011.21
2016-04-17T10:09:17.021Z,1011.23
2016-04-17T10:10:17.009Z,1011.28
2016-04-17T10:11:17.058Z,1011.27
2016-04-17T10:12:16.983Z,1011.22
2016-04-17T10:13:16.969Z,1011.4
2016-04-17T10:14:16.956Z,1011.28
2016-04-17T10:15:16.943Z,1011.24
2016-04-17T10:16:16.931Z,1011.29
2016-04-17T10:17:16.918Z,1011.26
2016-04-17T10:18:16.905Z,1011.32
2016-04-17T10:19:16.892Z,1011.26
2016-04-17T10:20:16.879Z,1011.34
2016-04-17T10:21:16.866Z,1011.43
2016-04-17T10:22:16.837Z,1011.36
2016-04-17T10:23:16.824Z,1011.37
2016-04-17T10:24:16.827Z,1011.41
2016-04-17T10:25:16.798Z,1011.43
2016-04-17T10:26:16.801Z,1011.38
2016-04-17T10:27:16.773Z,1011.44
2016-04-17T10:28:16.776Z,1011.51
2016-04-17T10:29:16.747Z,1011.57
2016-04-17T10:30:16.749Z,1011.53
2016-04-17T10:31:16.721Z,1011.4
2016-04-17T10:32:16.723Z,1011.43
2016-04-17T10:33:16.711Z,1011.51
2016-04-17T10:34:16.698Z,1011.5
2016-04-17T10:35:16.684Z,1011.47
2016-04-17T10:36:16.672Z,1011.51
2016-04-17T10:37:16.659Z,1011.48
2016-04-17T10:38:16.631Z,1011.56
2016-04-17T10:39:16.634Z,1011.53
2016-04-17T10:40:16.620Z,1011.46
2016-04-17T10:41:16.608Z,1011.51
2016-04-17T10:42:16.594Z,1011.5
2016-04-17T10:43:16.581Z,1011.54
2016-04-17T10:44:16.569Z,1011.47
2016-04-17T10:45:16.555Z,1011.43
2016-04-17T10:46:16.543Z,1011.58
2016-04-17T10:47:16.529Z,1011.53
2016-04-17T10:48:16.517Z,1011.51
2016-04-17T10:49:16.505Z,1011.5
2016-04-17T10:50:16.491Z,1011.52
2016-04-17T10:51:16.478Z,1011.56
2016-04-17T10:52:16.466Z,1011.56
2016-04-17T10:53:16.452Z,1011.58
2016-04-17T10:54:16.439Z,1011.8
2016-04-17T10:55:16.426Z,1012.02
2016-04-17T10:56:16.413Z,1012.02
2016-04-17T10:57:16.415Z,1011.99
2016-04-17T10:58:16.403Z,1011.94
2016-04-17T10:59:16.391Z,1012.04
2016-04-17T11:00:16.393Z,1011.96
2016-04-17T11:01:16.380Z,1011.94
2016-04-17T11:02:16.367Z,1011.97
2016-04-17T11:03:16.370Z,1011.95
2016-04-17T11:04:16.357Z,1012
2016-04-17T11:05:16.359Z,1012.02
2016-04-17T11:06:16.346Z,1012.03
2016-04-17T11:07:16.348Z,1012
2016-04-17T11:08:16.336Z,1011.99
2016-04-17T11:09:16.339Z,1012.08
2016-04-17T11:10:16.341Z,1012.07
2016-04-17T11:11:16.328Z,1012
2016-04-17T11:12:16.331Z,1012.04
2016-04-17T11:13:16.334Z,1012.07
2016-04-17T11:14:16.337Z,1012.1
2016-04-17T11:15:16.324Z,1012.04
2016-04-17T11:16:16.327Z,1012.08
2016-04-17T11:17:16.330Z,1012
2016-04-17T11:18:16.332Z,1012.02
2016-04-17T11:19:16.335Z,1011.97
2016-04-17T11:20:16.322Z,1011.92
2016-04-17T11:21:16.325Z,1012
2016-04-17T11:22:16.311Z,1012.01
2016-04-17T11:23:16.313Z,1012.13
2016-04-17T11:24:16.316Z,1012.1
2016-04-17T11:25:16.319Z,1012.04
2016-04-17T11:26:16.322Z,1012.09
2016-04-17T11:27:16.324Z,1012.07
2016-04-17T11:28:16.327Z,1012.08
2016-04-17T11:29:16.330Z,1012
2016-04-17T11:30:16.317Z,1012.14
2016-04-17T11:31:16.320Z,1012.15
2016-04-17T11:32:16.323Z,1012.11
2016-04-17T11:33:16.325Z,1012.13
2016-04-17T11:34:16.329Z,1012.16
2016-04-17T11:35:16.315Z,1012.24
2016-04-17T11:36:16.333Z,1012.18
2016-04-17T11:37:16.336Z,1012.13
2016-04-17T11:38:16.339Z,1012.14
2016-04-17T11:39:16.342Z,1012.09
2016-04-17T11:40:16.344Z,1012.07
2016-04-17T11:41:16.347Z,1012.05
2016-04-17T11:42:16.350Z,1011.96
2016-04-17T11:43:16.353Z,1011.99
2016-04-17T11:44:16.340Z,1012
2016-04-17T11:45:16.342Z,1011.95
2016-04-17T11:46:16.345Z,1012
2016-04-17T11:47:16.348Z,1011.95
2016-04-17T11:48:16.350Z,1011.91
2016-04-17T11:49:16.337Z,1011.88
2016-04-17T11:50:16.355Z,1011.8
2016-04-17T11:51:16.358Z,1011.85
2016-04-17T11:52:16.360Z,1011.85
2016-04-17T11:53:16.347Z,1011.81
2016-04-17T11:54:16.366Z,1011.85
2016-04-17T11:55:16.353Z,1011.8
2016-04-17T11:56:16.355Z,1011.87
2016-04-17T11:57:16.358Z,1011.87
2016-04-17T11:58:16.361Z,1011.85
2016-04-17T11:59:16.364Z,1011.81
2016-04-17T12:00:16.367Z,1011.95
2016-04-17T12:01:16.369Z,1011.83
2016-04-17T12:02:16.372Z,1011.85
2016-04-17T12:03:16.375Z,1011.89
2016-04-17T12:04:16.377Z,1011.86
2016-04-17T12:05:16.427Z,1011.83
2016-04-17T12:06:16.383Z,1011.74
2016-04-17T12:07:16.385Z,1011.81
2016-04-17T12:08:16.388Z,1011.84
2016-04-17T12:09:16.390Z,1011.78